createdAt,value
2022-08-28T00:08:11.994Z,1015.05
2022-08-28T00:18:18.291Z,1015.09
2022-08-28T00:28:25.228Z,1015.09
2022-08-28T00:38:31.857Z,1015.17
2022-08-28T00:48:38.354Z,1015.10
2022-08-28T00:58:44.766Z,1015.16
2022-08-28T01:08:51.760Z,1015.07
2022-08-28T01:18:58.275Z,1015.07
2022-08-28T01:29:05.346Z,1015.11
2022-08-28T01:39:11.727Z,1015.14
2022-08-28T01:49:17.946Z,1015.15
2022-08-28T01:59:24.226Z,1015.11
2022-08-28T02:09:31.115Z,1015.10
2022-08-28T02:19:37.241Z,1015.07
2022-08-28T02:29:43.292Z,1015.06
2022-08-28T02:39:49.672Z,1015.08
2022-08-28T02:49:57.771Z,1015.17
2022-08-28T03:00:04.279Z,1015.21
2022-08-28T03:10:10.830Z,1015.21
2022-08-28T03:20:16.770Z,1015.27
2022-08-28T03:30:22.734Z,1015.27
2022-08-28T03:40:29.140Z,1015.34
2022-08-28T03:50:35.635Z,1015.33
2022-08-28T04:00:42.171Z,1015.37
2022-08-28T04:10:51.409Z,1015.54
2022-08-28T04:20:58.035Z,1015.55
2022-08-28T04:31:04.908Z,1015.63
2022-08-28T04:41:11.096Z,1015.76
2022-08-28T04:51:17.800Z,1015.94
2022-08-28T05:01:24.313Z,1015.90
2022-08-28T05:11:34.592Z,1015.92
2022-08-28T05:21:42.016Z,1016.01
2022-08-28T05:31:48.416Z,1016.05
2022-08-28T05:41:55.042Z,1016.10
2022-08-28T05:52:01.254Z,1016.12
2022-08-28T06:02:07.427Z,1016.11
2022-08-28T06:12:13.576Z,1016.16
2022-08-28T06:22:20.779Z,1016.20
2022-08-28T06:32:27.272Z,1016.29
2022-08-28T06:42:33.619Z,1016.40
2022-08-28T06:52:40.297Z,1016.46
2022-08-28T07:02:48.531Z,1016.60
2022-08-28T07:12:54.511Z,1016.63
2022-08-28T07:23:00.944Z,1016.86
2022-08-28T07:33:07.354Z,1016.94
2022-08-28T07:43:16.726Z,1016.97
2022-08-28T07:53:23.021Z,1017.03
2022-08-28T08:03:29.178Z,1017.10
2022-08-28T08:13:36.123Z,1017.14
2022-08-28T08:23:42.626Z,1017.17
2022-08-28T08:33:48.643Z,1017.25
2022-08-28T08:43:55.614Z,1017.31
2022-08-28T08:54:02.054Z,1017.37
2022-08-28T09:04:07.997Z,1017.39
2022-08-28T09:14:14.420Z,1017.49
2022-08-28T09:24:23.311Z,1017.58
2022-08-28T09:34:29.484Z,1017.62
2022-08-28T09:44:35.820Z,1017.71
2022-08-28T09:54:42.301Z,1017.76
2022-08-28T10:04:48.445Z,1017.85
2022-08-28T10:14:55.369Z,1017.91
2022-08-28T10:25:02.056Z,1017.93
2022-08-28T10:35:08.263Z,1017.96
2022-08-28T10:45:14.939Z,1018.06
2022-08-28T10:55:21.602Z,1018.12
2022-08-28T11:05:27.851Z,1018.22
2022-08-28T11:15:37.103Z,1018.22
2022-08-28T11:25:43.818Z,1018.29
2022-08-28T11:35:52.087Z,1018.36
2022-08-28T11:45:58.366Z,1018.40
2022-08-28T11:56:05.172Z,1018.34
2022-08-28T12:06:11.567Z,1018.37
2022-08-28T12:16:17.742Z,1018.34
2022-08-28T12:26:24.063Z,1018.38
2022-08-28T12:36:30.246Z,1018.43
2022-08-28T12:46:39.782Z,1018.44
2022-08-28T12:56:46.541Z,1018.36
2022-08-28T13:06:52.782Z,1018.34
2022-08-28T13:16:58.969Z,1018.31
2022-08-28T13:27:05.707Z,1018.30
2022-08-28T13:37:14.974Z,1018.31
2022-08-28T13:47:23.542Z,1018.23
2022-08-28T13:57:30.841Z,1018.20
2022-08-28T14:07:38.771Z,1018.16
2022-08-28T14:17:45.781Z,1018.15
2022-08-28T14:27:52.146Z,1018.06
2022-08-28T14:38:00.247Z,1017.99
2022-08-28T14:48:06.849Z,1017.84
2022-08-28T14:58:14.318Z,1017.86
2022-08-28T15:08:21.327Z,1017.87
2022-08-28T15:18:27.751Z,1017.76
2022-08-28T15:28:33.905Z,1017.70
2022-08-28T15:38:40.448Z,1017.71
2022-08-28T15:48:47.371Z,1017.76
2022-08-28T15:58:54.364Z,1017.69
2022-08-28T16:09:00.976Z,1017.67
2022-08-28T16:19:07.736Z,1017.66
2022-08-28T16:29:14.699Z,1017.63
2022-08-28T16:39:21.830Z,1017.67
2022-08-28T16:49:28.669Z,1017.64
2022-08-28T16:59:37.669Z,1017.66
2022-08-28T17:09:43.962Z,1017.63
2022-08-28T17:19:51.253Z,1017.66
2022-08-28T17:29:58.056Z,1017.69
2022-08-28T17:40:04.877Z,1017.76
2022-08-28T17:50:12.583Z,1017.84
2022-08-28T18:00:19.542Z,1017.92
2022-08-28T18:10:26.208Z,1018.07
2022-08-28T18:20:33.542Z,1018.15
2022-08-28T18:30:39.899Z,1018.25
2022-08-28T18:40:47.111Z,1018.25
2022-08-28T18:50:53.028Z,1018.40
2022-08-28T19:00:59.885Z,1018.47
2022-08-28T19:11:06.556Z,1018.50
2022-08-28T19:21:14.997Z,1018.50
2022-08-28T19:31:23.048Z,1018.70
2022-08-28T19:41:30.069Z,1018.79
2022-08-28T19:51:36.608Z,1018.82
2022-08-28T20:01:42.826Z,1018.89
2022-08-28T20:11:49.265Z,1018.94
2022-08-28T20:21:55.518Z,1019.00
2022-08-28T20:32:02.014Z,1019.17
2022-08-28T20:42:08.374Z,1019.21
2022-08-28T20:52:14.726Z,1019.20
2022-08-28T21:02:21.162Z,1019.22
2022-08-28T21:12:27.340Z,1019.26
2022-08-28T21:22:34.561Z,1019.32
2022-08-28T21:32:41.959Z,1019.31
2022-08-28T21:42:48.452Z,1019.32
2022-08-28T21:52:54.236Z,1019.27
2022-08-28T22:03:00.462Z,1019.32
2022-08-28T22:13:06.586Z,1019.39
2022-08-28T22:23:12.929Z,1019.51
2022-08-28T22:33:19.176Z,1019.50
2022-08-28T22:43:25.463Z,1019.47
2022-08-28T22:53:31.617Z,1019.54
2022-08-28T23:03:39.714Z,1019.68
2022-08-28T23:13:46.573Z,1019.58
2022-08-28T23:23:52.944Z,1019.56
2022-08-28T23:33:59.136Z,1019.55
2022-08-28T23:44:08.471Z,1019.58
2022-08-28T23:54:15.441Z,1019.58
